createdAt,value
2023-02-02T01:17:05.664Z,8.80
2023-02-02T01:19:36.209Z,6.80
2023-02-02T01:22:04.313Z,8.20
2023-02-02T01:24:32.792Z,7.60
2023-02-02T01:27:01.420Z,8.80
2023-02-02T01:29:29.822Z,9.10
2023-02-02T01:31:58.008Z,9.40
2023-02-02T01:34:26.585Z,10.40
2023-02-02T01:36:56.909Z,12.50
2023-02-02T01:39:25.374Z,12.20
2023-02-02T01:41:53.735Z,11.00
2023-02-02T01:45:00.169Z,10.70
2023-02-02T01:47:31.001Z,10.50
2023-02-02T01:49:59.148Z,9.80
2023-02-02T01:52:28.553Z,11.70
2023-02-02T01:54:59.112Z,11.40
2023-02-02T01:57:30.603Z,9.80
2023-02-02T02:00:00.128Z,8.70
2023-02-02T02:02:30.934Z,9.30
2023-02-02T02:05:00.488Z,9.10
2023-02-02T02:07:28.714Z,10.00
2023-02-02T02:09:57.007Z,8.90
2023-02-02T02:12:25.995Z,8.50
2023-02-02T02:15:13.037Z,7.10
2023-02-02T02:17:44.155Z,5.40
2023-02-02T02:21:16.474Z,6.00
2023-02-02T02:24:19.314Z,7.20
2023-02-02T02:27:06.070Z,15.30
2023-02-02T02:30:19.146Z,12.40
2023-02-02T02:33:07.397Z,12.60
2023-02-02T02:40:08.421Z,11.50
2023-02-02T02:42:39.472Z,11.70
2023-02-02T02:46:27.655Z,12.20
2023-02-02T02:48:59.236Z,12.40
2023-02-02T02:51:54.437Z,13.00
2023-02-02T02:54:59.203Z,11.20
2023-02-02T02:57:55.647Z,11.50
2023-02-02T03:00:30.463Z,11.60
2023-02-02T03:03:25.351Z,13.10
2023-02-02T03:06:15.338Z,11.50
2023-02-02T03:08:48.758Z,12.10
2023-02-02T03:11:17.168Z,11.70
2023-02-02T03:13:45.382Z,10.90
2023-02-02T03:16:15.135Z,9.60
2023-02-02T03:18:43.330Z,9.50
2023-02-02T03:21:12.494Z,11.40
2023-02-02T03:23:40.712Z,13.10
2023-02-02T03:26:08.975Z,11.80
2023-02-02T03:28:37.130Z,11.80
2023-02-02T03:31:05.499Z,12.30
2023-02-02T03:33:33.935Z,11.90
2023-02-02T03:36:03.175Z,11.20
2023-02-02T03:38:33.851Z,10.90
2023-02-02T03:41:02.031Z,12.20
2023-02-02T03:43:30.211Z,12.60
2023-02-02T03:46:00.229Z,13.10
2023-02-02T03:48:28.429Z,15.90
2023-02-02T03:50:57.035Z,15.70
2023-02-02T03:53:25.584Z,17.00
2023-02-02T03:55:53.723Z,14.80
2023-02-02T03:58:22.488Z,15.30
2023-02-02T04:00:50.666Z,25.20
2023-02-02T04:03:18.931Z,29.80
2023-02-02T07:26:15.624Z,15.30
2023-02-02T07:28:44.750Z,18.50
2023-02-02T07:31:17.924Z,17.40
2023-02-02T07:33:46.368Z,17.00
2023-02-02T07:36:18.979Z,17.70
2023-02-02T07:38:48.168Z,19.00
2023-02-02T07:41:16.483Z,21.30
2023-02-02T07:43:47.424Z,20.20
2023-02-02T07:46:15.980Z,23.40
2023-02-02T07:54:44.825Z,35.40
2023-02-02T07:57:14.018Z,38.80
2023-02-02T07:59:42.293Z,38.90
2023-02-02T08:02:11.024Z,34.70
2023-02-02T08:04:39.481Z,30.70
2023-02-02T08:07:07.968Z,26.60
2023-02-02T08:09:36.203Z,29.00
2023-02-02T08:12:04.432Z,32.60
2023-02-02T08:14:33.523Z,41.60
2023-02-02T08:17:03.617Z,43.60
2023-02-02T08:19:32.275Z,47.10
2023-02-02T08:22:01.015Z,39.70
2023-02-02T08:24:29.753Z,35.40
2023-02-02T08:26:58.744Z,39.60
2023-02-02T08:29:27.384Z,39.30
2023-02-02T08:31:55.970Z,41.80
2023-02-02T08:34:24.539Z,41.20
2023-02-02T08:36:53.166Z,40.20
2023-02-02T08:39:24.846Z,30.30
2023-02-02T08:41:55.935Z,20.50
2023-02-02T08:44:27.891Z,16.80
2023-02-02T08:47:08.235Z,16.50
2023-02-02T08:49:38.897Z,14.60
2023-02-02T08:52:07.275Z,15.20
2023-02-02T08:54:35.914Z,16.20
2023-02-02T08:57:04.578Z,14.50
2023-02-02T08:59:33.578Z,15.80
2023-02-02T09:02:01.909Z,10.10
2023-02-02T09:04:30.448Z,9.50
2023-02-02T09:06:58.689Z,10.20
2023-02-02T09:09:27.174Z,7.50
2023-02-02T09:11:59.531Z,6.90
2023-02-02T09:14:31.491Z,4.30
2023-02-02T09:17:00.104Z,4.30
2023-02-02T09:19:28.880Z,7.00
2023-02-02T09:21:57.179Z,10.00
2023-02-02T09:24:25.435Z,9.60
2023-02-02T09:26:54.229Z,9.10
2023-02-02T09:29:22.376Z,12.30
2023-02-02T09:31:50.648Z,11.70
2023-02-02T09:34:18.916Z,4.40
2023-02-02T09:36:48.679Z,3.40
2023-02-02T09:39:18.669Z,4.40
2023-02-02T09:42:11.435Z,5.20
2023-02-02T09:44:58.194Z,5.80
2023-02-02T09:47:53.724Z,2.30
2023-02-02T09:50:27.712Z,6.20
2023-02-02T09:55:33.034Z,9.00
2023-02-02T09:58:11.942Z,1.60
2023-02-02T10:00:44.434Z,5.30
2023-02-02T10:03:19.511Z,3.60
2023-02-02T10:05:55.817Z,8.30
2023-02-02T13:29:47.250Z,3.00
2023-02-02T13:32:32.164Z,4.90
2023-02-02T13:35:16.411Z,5.20
2023-02-02T13:38:06.141Z,6.60
2023-02-02T13:40:39.596Z,3.00
2023-02-02T13:43:42.469Z,6.70
2023-02-02T13:46:31.787Z,8.00
2023-02-02T13:49:19.913Z,5.60
2023-02-02T13:52:10.426Z,4.10
2023-02-02T13:55:06.850Z,2.50
2023-02-02T14:03:40.799Z,2.80
2023-02-02T14:06:19.589Z,3.40
2023-02-02T14:08:51.787Z,4.40
2023-02-02T14:11:42.651Z,4.80
2023-02-02T14:14:33.529Z,5.20
2023-02-02T14:17:06.235Z,4.50
2023-02-02T14:19:34.497Z,4.10
2023-02-02T14:22:02.746Z,3.90
2023-02-02T14:24:37.934Z,3.30
2023-02-02T14:27:09.279Z,3.30
2023-02-02T14:29:47.001Z,2.50
2023-02-02T14:32:25.293Z,3.70
2023-02-02T14:34:55.831Z,5.20
2023-02-02T14:37:24.278Z,4.90
2023-02-02T14:40:05.467Z,7.00
2023-02-02T14:43:12.156Z,5.50
2023-02-02T14:45:50.562Z,5.10
2023-02-02T14:48:19.994Z,5.50
2023-02-02T14:50:58.175Z,4.90
2023-02-02T14:53:37.323Z,5.10
2023-02-02T14:56:12.029Z,6.60
2023-02-02T14:58:41.977Z,5.80
2023-02-02T15:01:24.911Z,4.50
2023-02-02T15:04:24.224Z,4.70
2023-02-02T15:06:53.314Z,5.10
2023-02-02T15:09:27.994Z,5.10
2023-02-02T15:12:02.141Z,4.80
2023-02-02T15:15:19.448Z,4.80
2023-02-02T15:18:08.409Z,4.80
2023-02-02T15:20:56.628Z,6.70
2023-02-02T15:23:36.434Z,7.60
2023-02-02T15:26:22.536Z,7.50
2023-02-02T15:29:02.261Z,6.50
2023-02-02T15:31:35.660Z,4.80
2023-02-02T15:34:25.502Z,3.90
2023-02-02T15:37:00.736Z,4.00
2023-02-02T15:39:33.845Z,3.30
2023-02-02T15:42:24.545Z,3.80
2023-02-02T15:44:53.407Z,1.30
2023-02-02T15:47:29.228Z,1.10
2023-02-02T15:49:59.946Z,1.10
2023-02-02T15:52:38.291Z,0.60
2023-02-02T15:55:34.913Z,0.70
2023-02-02T15:58:03.239Z,0.70
2023-02-02T16:00:38.214Z,1.40
2023-02-02T16:03:12.408Z,2.50
2023-02-02T16:05:41.985Z,3.50
2023-02-02T16:08:17.195Z,1.70
2023-02-02T19:22:23.368Z,1.80
2023-02-02T19:24:57.995Z,2.90
2023-02-02T19:27:31.860Z,2.20
2023-02-02T19:30:03.405Z,1.90
2023-02-02T19:32:36.302Z,1.60
2023-02-02T19:35:06.949Z,1.00
2023-02-02T19:37:40.243Z,0.70
2023-02-02T19:40:08.902Z,0.60
2023-02-02T19:42:41.306Z,0.80
2023-02-02T19:45:32.046Z,0.90
2023-02-02T19:48:14.248Z,1.00
2023-02-02T19:50:42.964Z,0.70
2023-02-02T19:53:38.527Z,1.90
2023-02-02T19:56:27.041Z,2.60
2023-02-02T19:58:55.925Z,1.30
2023-02-02T20:01:24.205Z,1.00
2023-02-02T20:03:53.350Z,1.00
2023-02-02T20:06:26.449Z,1.50
2023-02-02T20:08:54.818Z,1.20
2023-02-02T20:11:36.033Z,1.10
2023-02-02T20:14:18.530Z,0.80
2023-02-02T20:17:07.969Z,0.90
2023-02-02T20:19:40.129Z,1.40
2023-02-02T20:22:40.248Z,1.40
2023-02-02T20:25:11.109Z,1.00
2023-02-02T20:27:39.456Z,2.10
2023-02-02T20:30:23.973Z,2.40
2023-02-02T20:32:55.771Z,1.90
2023-02-02T20:35:34.543Z,1.10
2023-02-02T20:38:12.192Z,0.90
2023-02-02T20:40:41.616Z,1.10
2023-02-02T20:43:10.186Z,1.40
2023-02-02T20:45:41.627Z,1.20
2023-02-02T20:48:12.546Z,1.30
2023-02-02T20:50:41.026Z,1.20
2023-02-02T20:53:10.288Z,0.70
2023-02-02T20:55:40.864Z,0.90
2023-02-02T20:58:10.182Z,0.80
2023-02-02T21:00:39.111Z,1.10
2023-02-02T21:03:07.485Z,0.80
2023-02-02T21:05:48.256Z,0.70
2023-02-02T21:08:20.923Z,1.00
2023-02-02T21:10:49.140Z,1.20
2023-02-02T21:13:17.547Z,1.50
2023-02-02T21:15:46.420Z,1.30
2023-02-02T21:18:15.829Z,1.00
2023-02-02T21:20:47.867Z,1.20
2023-02-02T21:23:19.271Z,0.90
2023-02-02T21:25:48.366Z,1.00
2023-02-02T21:28:16.711Z,1.60
2023-02-02T21:30:47.294Z,1.50
2023-02-02T21:33:15.407Z,1.50
2023-02-02T21:35:44.053Z,2.10
2023-02-02T21:38:14.772Z,2.40
2023-02-02T21:40:43.721Z,1.00
2023-02-02T21:43:17.374Z,1.50
2023-02-02T21:45:50.435Z,1.40
2023-02-02T21:48:20.105Z,1.40
2023-02-02T21:50:49.624Z,1.10
2023-02-02T21:53:25.407Z,1.10
2023-02-02T21:55:54.639Z,1.40
2023-02-02T21:58:32.060Z,1.10
